createdAt,value
2022-12-31T00:01:56.461Z,5.90
2022-12-31T00:04:34.734Z,5.80
2022-12-31T00:07:03.285Z,5.90
2022-12-31T00:09:31.794Z,5.90
2022-12-31T00:12:02.988Z,5.90
2022-12-31T00:14:31.794Z,5.90
2022-12-31T00:17:02.018Z,5.90
2022-12-31T00:19:30.492Z,5.90
2022-12-31T00:22:00.127Z,5.90
2022-12-31T00:24:31.172Z,5.90
2022-12-31T00:26:59.729Z,5.90
2022-12-31T00:29:28.300Z,6.00
2022-12-31T00:31:56.911Z,6.00
2022-12-31T00:34:26.989Z,5.90
2022-12-31T00:36:55.437Z,6.00
2022-12-31T00:39:23.794Z,5.90
2022-12-31T00:41:52.325Z,5.80
2022-12-31T00:44:21.314Z,5.80
2022-12-31T00:46:50.318Z,5.90
2022-12-31T00:49:18.949Z,6.00
2022-12-31T00:51:48.797Z,6.10
2022-12-31T00:54:17.361Z,6.10
2022-12-31T00:56:46.522Z,6.10
2022-12-31T00:59:14.884Z,6.10
2022-12-31T01:01:44.150Z,6.10
2022-12-31T01:04:15.220Z,6.20
2022-12-31T01:06:44.431Z,6.20
2022-12-31T01:09:16.231Z,6.20
2022-12-31T01:11:44.760Z,6.30
2022-12-31T01:14:16.583Z,6.30
2022-12-31T01:16:46.711Z,6.40
2022-12-31T01:19:17.576Z,6.40
2022-12-31T01:21:46.719Z,6.40
2022-12-31T01:24:16.977Z,6.40
2022-12-31T01:26:46.214Z,6.50
2022-12-31T01:29:16.998Z,6.50
2022-12-31T01:31:45.415Z,6.60
2022-12-31T01:34:13.756Z,6.60
2022-12-31T01:36:42.362Z,6.50
2022-12-31T01:39:12.172Z,6.60
2022-12-31T01:41:43.758Z,6.60
2022-12-31T01:44:50.823Z,6.60
2022-12-31T01:47:23.354Z,6.60
2022-12-31T01:49:55.521Z,6.50
2022-12-31T01:52:29.014Z,6.50
2022-12-31T01:55:03.873Z,6.40
2022-12-31T01:57:33.990Z,6.40
2022-12-31T02:00:03.019Z,6.40
2022-12-31T02:02:31.397Z,6.40
2022-12-31T02:05:02.769Z,6.40
2022-12-31T02:07:31.035Z,6.40
2022-12-31T02:10:00.222Z,6.40
2022-12-31T02:12:28.687Z,6.40
2022-12-31T02:14:58.827Z,6.30
2022-12-31T02:17:35.224Z,6.30
2022-12-31T02:20:51.518Z,6.30
2022-12-31T02:23:46.055Z,6.30
2022-12-31T02:26:37.608Z,6.20
2022-12-31T02:29:40.627Z,6.30
2022-12-31T02:32:15.795Z,6.30
2022-12-31T02:34:48.923Z,6.40
2022-12-31T02:37:19.085Z,6.50
2022-12-31T02:39:47.919Z,6.60
2022-12-31T02:42:16.707Z,6.70
2022-12-31T02:44:45.937Z,6.80
2022-12-31T02:47:34.387Z,6.80
2022-12-31T02:50:18.962Z,6.90
2022-12-31T02:52:56.761Z,7.00
2022-12-31T02:55:31.800Z,6.90
2022-12-31T02:58:06.413Z,6.90
2022-12-31T03:00:55.699Z,6.80
2022-12-31T03:03:27.026Z,6.90
2022-12-31T03:05:56.764Z,6.80
2022-12-31T03:08:26.763Z,6.90
2022-12-31T03:10:56.939Z,7.00
2022-12-31T03:13:24.646Z,7.00
2022-12-31T03:15:52.979Z,7.10
2022-12-31T03:18:42.058Z,7.10
2022-12-31T03:21:32.246Z,7.10
2022-12-31T03:24:17.576Z,7.00
2022-12-31T03:26:46.102Z,6.90
2022-12-31T03:29:14.395Z,7.00
2022-12-31T03:31:42.672Z,7.10
2022-12-31T03:34:11.122Z,7.10
2022-12-31T03:36:40.908Z,7.10
2022-12-31T03:39:09.232Z,7.10
2022-12-31T03:41:37.736Z,7.10
2022-12-31T03:44:06.273Z,7.10
2022-12-31T03:46:34.522Z,7.10
2022-12-31T03:49:02.767Z,7.10
2022-12-31T03:51:31.148Z,7.10
2022-12-31T03:54:00.861Z,7.10
2022-12-31T03:56:29.231Z,7.20
2022-12-31T03:58:57.578Z,7.30
2022-12-31T04:01:26.269Z,7.30
2022-12-31T04:03:54.722Z,7.40
2022-12-31T04:06:23.173Z,7.40
2022-12-31T04:08:51.660Z,7.50
2022-12-31T04:11:21.518Z,7.60
2022-12-31T04:13:49.858Z,7.70
2022-12-31T04:16:18.281Z,7.70
2022-12-31T04:18:46.710Z,7.70
2022-12-31T04:21:14.954Z,7.60
2022-12-31T04:23:43.423Z,7.60
2022-12-31T04:26:11.715Z,7.50
2022-12-31T04:28:41.461Z,7.60
2022-12-31T04:31:11.263Z,7.50
2022-12-31T04:33:39.726Z,7.50
2022-12-31T04:36:09.732Z,7.50
2022-12-31T04:38:38.023Z,7.60
2022-12-31T04:41:19.167Z,7.60
2022-12-31T04:43:50.975Z,7.60
2022-12-31T04:46:21.523Z,7.70
2022-12-31T04:48:49.870Z,7.90
2022-12-31T04:51:18.115Z,8.00
2022-12-31T04:53:46.481Z,8.00
2022-12-31T04:56:15.348Z,8.00
2022-12-31T04:58:43.925Z,8.00
2022-12-31T05:01:15.011Z,8.10
2022-12-31T05:03:43.430Z,8.10
2022-12-31T05:06:15.408Z,8.10
2022-12-31T05:08:44.310Z,8.20
2022-12-31T05:11:13.231Z,8.30
2022-12-31T05:13:41.745Z,8.40
2022-12-31T05:16:10.794Z,8.40
2022-12-31T05:18:40.668Z,8.60
2022-12-31T05:21:09.164Z,8.60
2022-12-31T05:23:37.539Z,8.60
2022-12-31T05:26:06.086Z,8.60
2022-12-31T05:28:34.313Z,8.70
2022-12-31T05:31:02.880Z,8.60
2022-12-31T05:33:31.304Z,8.70
2022-12-31T05:36:01.019Z,8.70
2022-12-31T05:38:29.350Z,8.70
2022-12-31T05:41:01.844Z,8.70
2022-12-31T05:43:30.360Z,8.60
2022-12-31T05:46:01.353Z,8.50
2022-12-31T05:48:29.981Z,8.50
2022-12-31T05:50:58.455Z,8.50
2022-12-31T05:53:28.340Z,8.60
2022-12-31T05:55:56.613Z,8.60
2022-12-31T05:58:24.940Z,8.60
2022-12-31T06:00:53.469Z,8.70
2022-12-31T06:03:21.956Z,8.70
2022-12-31T06:05:50.464Z,8.80
2022-12-31T06:08:18.688Z,8.80
2022-12-31T06:10:49.409Z,8.80
2022-12-31T06:13:17.772Z,8.80
2022-12-31T06:15:46.065Z,8.80
2022-12-31T06:18:14.400Z,8.80
2022-12-31T06:20:42.674Z,8.80
2022-12-31T06:23:11.003Z,8.80
2022-12-31T06:25:39.380Z,8.90
2022-12-31T06:28:16.052Z,8.90
2022-12-31T06:30:48.095Z,9.00
2022-12-31T06:33:16.392Z,9.00
2022-12-31T06:35:44.670Z,9.10
2022-12-31T06:38:12.914Z,9.00
2022-12-31T06:40:41.305Z,9.00
2022-12-31T06:43:11.094Z,9.10
2022-12-31T06:45:39.746Z,9.10
2022-12-31T06:48:08.553Z,9.10
2022-12-31T06:50:36.994Z,9.10
2022-12-31T06:53:05.726Z,9.20
2022-12-31T06:55:34.522Z,9.30
2022-12-31T06:58:03.339Z,9.20
2022-12-31T07:00:33.460Z,9.20
2022-12-31T07:03:20.799Z,9.20
2022-12-31T07:05:52.906Z,9.20
2022-12-31T07:08:41.281Z,9.20
2022-12-31T07:11:16.722Z,9.20
2022-12-31T07:14:11.061Z,9.20
2022-12-31T07:16:58.096Z,9.10
2022-12-31T07:19:40.532Z,9.20
2022-12-31T07:22:15.009Z,9.20
2022-12-31T07:24:44.530Z,9.20
2022-12-31T07:27:29.577Z,9.30
2022-12-31T07:30:06.124Z,9.30
2022-12-31T07:32:59.479Z,9.20
2022-12-31T07:35:35.496Z,9.30
2022-12-31T07:38:12.791Z,9.30
2022-12-31T07:40:53.983Z,9.40
2022-12-31T07:43:32.268Z,9.40
2022-12-31T07:46:12.263Z,9.40
2022-12-31T07:48:42.513Z,9.50
2022-12-31T07:51:12.502Z,9.50
2022-12-31T07:53:40.768Z,9.50
2022-12-31T07:56:10.927Z,9.60
2022-12-31T07:58:56.648Z,9.70
2022-12-31T08:01:34.845Z,9.70
2022-12-31T08:04:09.769Z,9.90
2022-12-31T08:06:45.651Z,9.90
2022-12-31T08:09:25.600Z,9.90
2022-12-31T08:11:57.930Z,9.90
2022-12-31T08:14:27.071Z,10.00
2022-12-31T08:16:56.965Z,10.10
2022-12-31T08:19:30.633Z,10.20
2022-12-31T08:22:16.332Z,10.30
2022-12-31T08:24:57.037Z,10.30
2022-12-31T08:27:33.105Z,10.30
2022-12-31T08:30:08.536Z,10.40
2022-12-31T08:32:41.196Z,10.40
2022-12-31T08:35:23.957Z,10.40
2022-12-31T08:38:00.369Z,10.40
2022-12-31T08:40:36.016Z,10.50
2022-12-31T08:43:26.648Z,10.50
2022-12-31T08:45:55.113Z,10.70
2022-12-31T08:48:31.088Z,10.70
2022-12-31T08:51:01.599Z,10.80
2022-12-31T08:53:30.481Z,10.80
2022-12-31T08:56:07.675Z,10.80
2022-12-31T08:58:44.788Z,10.90
2022-12-31T09:01:15.151Z,10.90
2022-12-31T09:04:02.842Z,11.00
2022-12-31T09:06:39.380Z,11.00
2022-12-31T09:09:18.416Z,11.10
2022-12-31T09:11:55.506Z,11.10
2022-12-31T09:14:41.504Z,11.20
2022-12-31T09:17:34.969Z,11.20
2022-12-31T09:20:04.459Z,11.30
2022-12-31T09:22:34.745Z,11.30
2022-12-31T09:25:03.439Z,11.30
2022-12-31T09:27:39.240Z,11.30
2022-12-31T09:30:12.583Z,11.30
2022-12-31T09:32:48.713Z,11.40
2022-12-31T09:35:27.344Z,11.40
2022-12-31T09:38:07.979Z,11.50
2022-12-31T09:41:12.897Z,11.50
2022-12-31T09:44:18.963Z,11.60
2022-12-31T09:47:29.036Z,11.70
2022-12-31T09:50:37.747Z,11.90
2022-12-31T09:53:37.159Z,11.90
2022-12-31T09:56:12.361Z,11.90
2022-12-31T09:58:49.378Z,11.90
2022-12-31T10:01:30.615Z,11.80
2022-12-31T10:04:26.698Z,11.80
2022-12-31T10:07:07.937Z,11.90
2022-12-31T10:09:51.345Z,11.90
2022-12-31T10:12:46.252Z,11.90
2022-12-31T10:15:46.310Z,12.00
2022-12-31T10:18:24.813Z,12.00
2022-12-31T10:21:06.527Z,12.10
2022-12-31T10:24:01.143Z,12.10
2022-12-31T10:26:55.664Z,12.20
2022-12-31T10:29:33.121Z,12.30
2022-12-31T10:32:17.942Z,12.30
2022-12-31T10:34:57.173Z,12.20
2022-12-31T10:37:38.715Z,12.20
2022-12-31T10:40:21.191Z,12.20
2022-12-31T10:43:37.581Z,12.10
2022-12-31T10:46:35.535Z,12.20
2022-12-31T10:49:35.506Z,12.20
2022-12-31T10:52:34.528Z,12.30
2022-12-31T10:55:27.001Z,12.30
2022-12-31T10:58:20.168Z,12.40
2022-12-31T11:01:00.383Z,12.40
2022-12-31T11:03:51.633Z,12.40
2022-12-31T11:06:58.757Z,12.50
2022-12-31T11:10:02.988Z,12.50
2022-12-31T11:13:14.942Z,12.60
2022-12-31T11:16:15.027Z,12.60
2022-12-31T11:18:53.513Z,12.60
2022-12-31T11:21:39.414Z,12.60
2022-12-31T11:24:22.995Z,12.60
2022-12-31T11:27:06.408Z,12.60
2022-12-31T11:29:50.717Z,12.70
2022-12-31T11:32:34.504Z,12.70
2022-12-31T11:35:23.593Z,12.70
2022-12-31T11:37:59.903Z,12.80
2022-12-31T11:40:43.133Z,12.70
2022-12-31T11:43:27.832Z,12.80
2022-12-31T11:46:32.326Z,12.80
2022-12-31T11:49:20.216Z,12.90
2022-12-31T11:52:02.344Z,12.80
2022-12-31T11:54:51.024Z,12.80
2022-12-31T11:57:26.503Z,12.80
2022-12-31T12:00:01.163Z,12.80
2022-12-31T12:02:33.450Z,12.80
2022-12-31T12:05:10.656Z,12.90
2022-12-31T12:07:39.643Z,12.90
2022-12-31T12:10:32.002Z,12.90
2022-12-31T12:13:14.658Z,12.90
2022-12-31T12:15:51.937Z,13.00
2022-12-31T12:18:28.176Z,13.00
2022-12-31T12:21:05.755Z,13.00
2022-12-31T12:23:34.047Z,13.00
2022-12-31T12:26:26.499Z,13.20
2022-12-31T12:28:55.099Z,13.20
2022-12-31T12:31:27.122Z,13.30
2022-12-31T12:33:55.448Z,13.30
2022-12-31T12:36:23.833Z,13.30
2022-12-31T12:39:08.502Z,13.30
2022-12-31T12:41:39.958Z,13.40
2022-12-31T12:44:16.918Z,13.40
2022-12-31T12:46:49.294Z,13.40
2022-12-31T12:49:25.207Z,13.40
2022-12-31T12:52:22.722Z,13.40
2022-12-31T12:55:05.273Z,13.40
2022-12-31T12:57:43.879Z,13.50
2022-12-31T13:00:19.493Z,13.50
2022-12-31T13:03:20.283Z,13.60
2022-12-31T13:06:16.848Z,13.50
2022-12-31T13:08:59.987Z,13.50
2022-12-31T13:11:38.189Z,13.60
2022-12-31T13:14:15.834Z,13.60
2022-12-31T13:16:52.606Z,13.60
2022-12-31T13:19:28.996Z,13.60
2022-12-31T13:22:04.331Z,13.70
2022-12-31T13:24:53.306Z,13.70
2022-12-31T13:27:28.957Z,13.80
2022-12-31T13:30:02.538Z,13.90
2022-12-31T13:32:39.169Z,13.90
2022-12-31T13:35:22.932Z,13.90
2022-12-31T13:38:00.261Z,13.90
2022-12-31T13:40:42.177Z,13.90
2022-12-31T13:43:23.737Z,13.90
2022-12-31T13:46:03.062Z,13.80
2022-12-31T13:48:37.344Z,13.90
2022-12-31T13:51:14.992Z,13.80
2022-12-31T13:53:52.579Z,13.90
2022-12-31T13:56:25.780Z,13.90
2022-12-31T13:59:01.489Z,13.90
2022-12-31T14:01:34.556Z,13.90
2022-12-31T14:04:12.358Z,13.90
2022-12-31T14:06:46.835Z,13.80
2022-12-31T14:09:23.546Z,13.90
2022-12-31T14:12:19.549Z,13.80
2022-12-31T14:14:55.981Z,13.80
2022-12-31T14:17:34.629Z,13.80
2022-12-31T14:20:19.663Z,13.90
2022-12-31T14:22:53.255Z,13.90
2022-12-31T14:25:30.298Z,13.90
2022-12-31T14:28:00.979Z,13.80
2022-12-31T14:30:34.059Z,13.80
2022-12-31T14:33:14.532Z,13.70
2022-12-31T14:36:09.955Z,13.70
2022-12-31T14:38:51.577Z,13.60
2022-12-31T14:41:35.619Z,13.50
2022-12-31T14:44:17.255Z,13.40
2022-12-31T14:47:00.571Z,13.30
2022-12-31T14:49:41.802Z,13.30
2022-12-31T14:52:20.978Z,13.30
2022-12-31T14:54:59.844Z,13.40
2022-12-31T14:58:01.431Z,13.30
2022-12-31T15:00:32.452Z,13.40
2022-12-31T15:03:02.473Z,13.20
2022-12-31T15:05:32.841Z,13.20
2022-12-31T15:08:20.809Z,13.00
2022-12-31T15:11:14.808Z,13.20
2022-12-31T15:14:00.135Z,13.20
2022-12-31T15:16:42.746Z,13.20
2022-12-31T15:19:47.999Z,13.10
2022-12-31T15:22:31.633Z,13.10
2022-12-31T15:25:01.254Z,13.20
2022-12-31T15:27:36.019Z,13.20
2022-12-31T15:30:07.462Z,13.20
2022-12-31T15:32:44.406Z,13.20
2022-12-31T15:35:28.137Z,13.10
2022-12-31T15:38:01.542Z,13.10
2022-12-31T15:40:30.573Z,13.00
2022-12-31T15:43:03.721Z,13.10
2022-12-31T15:45:38.486Z,13.20
2022-12-31T15:48:14.570Z,13.20
2022-12-31T15:50:44.712Z,13.20
2022-12-31T15:53:27.464Z,13.20
2022-12-31T15:56:01.580Z,13.30
2022-12-31T15:58:35.727Z,13.20
2022-12-31T16:01:21.649Z,13.00
2022-12-31T16:03:55.703Z,12.90
2022-12-31T16:06:24.361Z,12.90
2022-12-31T16:08:59.179Z,12.80
2022-12-31T16:11:30.410Z,12.80
2022-12-31T16:13:59.909Z,12.80
2022-12-31T16:16:31.500Z,12.80
2022-12-31T16:19:00.746Z,12.70
2022-12-31T16:21:37.049Z,12.70
2022-12-31T16:24:07.361Z,12.80
2022-12-31T16:26:46.250Z,12.80
2022-12-31T16:29:16.585Z,12.70
2022-12-31T16:31:48.071Z,12.70
2022-12-31T16:34:18.379Z,12.60
2022-12-31T16:36:58.039Z,12.60
2022-12-31T16:39:34.524Z,12.70
2022-12-31T16:42:27.707Z,13.00
2022-12-31T16:44:58.072Z,13.10
2022-12-31T16:47:34.049Z,13.10
2022-12-31T16:50:07.896Z,13.00
2022-12-31T16:52:40.247Z,13.00
2022-12-31T16:55:10.212Z,13.10
2022-12-31T16:57:39.279Z,13.10
2022-12-31T17:00:08.897Z,13.00
2022-12-31T17:02:41.195Z,12.90
2022-12-31T17:05:20.405Z,12.70
2022-12-31T17:07:48.695Z,12.70
2022-12-31T17:10:27.860Z,12.80
2022-12-31T17:15:47.352Z,13.10
2022-12-31T17:18:20.306Z,13.00
2022-12-31T17:20:50.036Z,13.00
2022-12-31T17:23:24.926Z,12.90
2022-12-31T17:26:01.101Z,13.10
2022-12-31T17:28:40.786Z,13.20
2022-12-31T17:31:32.201Z,13.00
2022-12-31T17:34:24.739Z,13.00
2022-12-31T17:37:03.194Z,12.90
2022-12-31T17:39:48.081Z,12.80
2022-12-31T17:42:26.316Z,12.80
2022-12-31T17:44:58.600Z,12.80
2022-12-31T17:47:35.039Z,12.80
2022-12-31T17:50:18.200Z,12.90
2022-12-31T17:52:46.512Z,12.90
2022-12-31T17:55:15.514Z,12.90
2022-12-31T17:57:50.276Z,12.90
2022-12-31T18:00:21.721Z,12.90
2022-12-31T18:02:50.268Z,12.90
2022-12-31T18:05:22.287Z,12.80
2022-12-31T18:07:51.652Z,12.80
2022-12-31T18:10:22.342Z,12.70
2022-12-31T18:12:51.332Z,12.60
2022-12-31T18:15:21.661Z,12.50
2022-12-31T18:17:50.425Z,12.50
2022-12-31T18:20:20.484Z,12.50
2022-12-31T18:22:49.132Z,12.50
2022-12-31T18:25:20.494Z,12.40
2022-12-31T18:27:48.860Z,12.40
2022-12-31T18:30:18.112Z,12.60
2022-12-31T18:32:49.832Z,12.70
2022-12-31T18:35:57.668Z,12.80
2022-12-31T18:38:13.805Z,12.70
2022-12-31T18:40:44.400Z,12.80
2022-12-31T18:43:17.293Z,12.90
2022-12-31T18:45:46.079Z,12.80
2022-12-31T18:48:14.706Z,12.80
2022-12-31T18:50:48.106Z,12.90
2022-12-31T18:53:21.161Z,13.00
2022-12-31T18:55:51.165Z,13.00
2022-12-31T18:58:19.537Z,13.00
2022-12-31T19:00:52.182Z,13.00
2022-12-31T19:03:23.419Z,12.90
2022-12-31T19:05:53.800Z,12.80
2022-12-31T19:08:29.683Z,12.70
2022-12-31T19:10:58.024Z,12.70
2022-12-31T19:13:26.532Z,12.80
2022-12-31T19:15:55.776Z,12.80
2022-12-31T19:18:24.002Z,12.70
2022-12-31T19:20:54.528Z,12.60
2022-12-31T19:23:22.954Z,12.60
2022-12-31T19:25:51.549Z,12.50
2022-12-31T19:28:22.581Z,12.50
2022-12-31T19:30:50.908Z,12.40
2022-12-31T19:33:27.286Z,12.30
2022-12-31T19:35:57.204Z,12.40
2022-12-31T19:38:28.938Z,12.40
2022-12-31T19:40:57.272Z,12.50
2022-12-31T19:43:25.782Z,12.50
2022-12-31T19:45:54.664Z,12.50
2022-12-31T19:48:32.365Z,12.50
2022-12-31T19:51:09.068Z,12.40
2022-12-31T19:53:37.699Z,12.30
2022-12-31T19:56:06.816Z,12.30
2022-12-31T19:58:35.048Z,12.30
2022-12-31T20:01:03.543Z,12.20
2022-12-31T20:03:32.670Z,12.20
2022-12-31T20:06:08.750Z,12.20
2022-12-31T20:08:38.568Z,12.20
2022-12-31T20:11:10.707Z,12.20
2022-12-31T20:13:39.154Z,12.20
2022-12-31T20:16:09.005Z,12.10
2022-12-31T20:18:38.687Z,12.10
2022-12-31T20:21:11.132Z,12.10
2022-12-31T20:23:39.751Z,12.20
2022-12-31T20:26:08.373Z,12.30
2022-12-31T20:28:37.769Z,12.40
2022-12-31T20:31:08.333Z,12.40
2022-12-31T20:33:36.684Z,12.40
2022-12-31T20:36:05.872Z,12.60
2022-12-31T20:38:35.645Z,12.60
2022-12-31T20:41:05.197Z,12.50
2022-12-31T20:43:34.133Z,12.50
2022-12-31T20:46:14.781Z,12.50
2022-12-31T20:48:44.071Z,12.50
2022-12-31T20:51:13.015Z,12.40
2022-12-31T20:53:47.929Z,12.40
2022-12-31T20:56:17.082Z,12.40
2022-12-31T20:58:45.679Z,12.40
2022-12-31T21:01:14.981Z,12.40
2022-12-31T21:06:34.274Z,12.20
2022-12-31T21:09:07.050Z,12.10
2022-12-31T21:11:55.992Z,12.10
2022-12-31T21:14:24.526Z,12.20
2022-12-31T21:16:52.836Z,12.10
2022-12-31T21:19:21.207Z,12.00
2022-12-31T21:21:49.931Z,11.90
2022-12-31T21:24:23.838Z,11.80
2022-12-31T21:26:53.046Z,11.70
2022-12-31T21:29:21.351Z,11.70
2022-12-31T21:31:49.891Z,11.80
2022-12-31T21:34:18.153Z,11.90
2022-12-31T21:36:46.423Z,11.90
2022-12-31T21:39:14.870Z,12.20
2022-12-31T21:41:53.265Z,12.40
2022-12-31T21:44:25.915Z,12.70
2022-12-31T21:47:35.346Z,12.70
2022-12-31T21:50:05.061Z,12.70
2022-12-31T21:52:35.128Z,12.70
2022-12-31T21:55:22.695Z,12.70
2022-12-31T21:58:25.334Z,12.70
2022-12-31T22:01:10.662Z,12.70
2022-12-31T22:03:39.099Z,12.80
2022-12-31T22:06:13.128Z,12.80
2022-12-31T22:08:43.349Z,12.90
2022-12-31T22:11:13.342Z,12.90
2022-12-31T22:13:43.295Z,12.90
2022-12-31T22:16:13.298Z,12.80
2022-12-31T22:18:44.119Z,12.80
2022-12-31T22:21:18.780Z,12.90
2022-12-31T22:23:49.130Z,12.90
2022-12-31T22:26:19.764Z,12.90
2022-12-31T22:28:49.498Z,12.80
2022-12-31T22:31:20.003Z,12.70
2022-12-31T22:33:48.710Z,12.80
2022-12-31T22:36:19.730Z,12.80
2022-12-31T22:38:48.940Z,12.70
2022-12-31T22:41:19.814Z,12.70
2022-12-31T22:43:51.475Z,12.80
2022-12-31T22:46:21.737Z,12.80
2022-12-31T22:48:50.843Z,12.80
2022-12-31T22:51:20.288Z,12.80
2022-12-31T22:53:48.939Z,12.80
2022-12-31T22:56:20.533Z,12.90
2022-12-31T22:58:50.349Z,12.90
2022-12-31T23:01:20.421Z,13.00
2022-12-31T23:03:49.984Z,13.10
2022-12-31T23:06:18.415Z,13.10
2022-12-31T23:09:07.014Z,13.00
2022-12-31T23:11:35.957Z,12.90
2022-12-31T23:14:24.096Z,12.80
2022-12-31T23:17:29.665Z,12.80
2022-12-31T23:20:15.561Z,13.00
2022-12-31T23:23:00.863Z,13.00
2022-12-31T23:25:29.332Z,13.10
2022-12-31T23:27:57.724Z,13.20
2022-12-31T23:30:30.394Z,13.40
2022-12-31T23:32:59.219Z,13.40
2022-12-31T23:35:27.646Z,13.50
2022-12-31T23:37:56.090Z,13.40
2022-12-31T23:40:34.370Z,13.40
2022-12-31T23:43:04.321Z,13.40
2022-12-31T23:45:35.627Z,13.30
2022-12-31T23:48:04.137Z,13.40
2022-12-31T23:50:32.503Z,13.40
2022-12-31T23:53:00.866Z,13.30
2022-12-31T23:55:29.184Z,13.30
2022-12-31T23:57:57.481Z,13.30
